sensor_id;sensor_type;location;lat;lon;timestamp;temperature;humidity
56725;DHT22;42608;52.776;6.968;2023-04-22T00:01:29;13.40;99.90
56725;DHT22;42608;52.776;6.968;2023-04-22T00:03:54;13.30;99.90
56725;DHT22;42608;52.776;6.968;2023-04-22T00:06:20;13.30;99.90
56725;DHT22;42608;52.776;6.968;2023-04-22T00:08:45;13.20;99.90
56725;DHT22;42608;52.776;6.968;2023-04-22T00:11:11;13.10;99.90
56725;DHT22;42608;52.776;6.968;2023-04-22T00:13:36;13.10;99.90
56725;DHT22;42608;52.776;6.968;2023-04-22T00:16:02;13.00;99.90
56725;DHT22;42608;52.776;6.968;2023-04-22T00:18:28;12.90;99.90
56725;DHT22;42608;52.776;6.968;2023-04-22T00:20:54;12.90;99.90
56725;DHT22;42608;52.776;6.968;2023-04-22T00:23:19;12.90;99.90
56725;DHT22;42608;52.776;6.968;2023-04-22T00:25:45;12.80;99.90
56725;DHT22;42608;52.776;6.968;2023-04-22T00:28:10;12.80;99.90
56725;DHT22;42608;52.776;6.968;2023-04-22T00:30:36;12.70;99.90
56725;DHT22;42608;52.776;6.968;2023-04-22T00:33:01;12.70;99.90
56725;DHT22;42608;52.776;6.968;2023-04-22T00:35:27;12.60;99.90
56725;DHT22;42608;52.776;6.968;2023-04-22T00:37:52;12.60;99.90
56725;DHT22;42608;52.776;6.968;2023-04-22T00:40:18;12.50;99.90
56725;DHT22;42608;52.776;6.968;2023-04-22T00:42:44;12.50;99.90
56725;DHT22;42608;52.776;6.968;2023-04-22T00:45:10;12.40;99.90
56725;DHT22;42608;52.776;6.968;2023-04-22T00:47:36;12.40;99.90
56725;DHT22;42608;52.776;6.968;2023-04-22T00:50:02;12.30;99.90
56725;DHT22;42608;52.776;6.968;2023-04-22T00:52:28;12.30;99.90
56725;DHT22;42608;52.776;6.968;2023-04-22T00:54:53;12.30;99.90
56725;DHT22;42608;52.776;6.968;2023-04-22T00:57:19;12.30;99.90
56725;DHT22;42608;52.776;6.968;2023-04-22T00:59:45;12.20;99.90
56725;DHT22;42608;52.776;6.968;2023-04-22T01:02:12;12.20;99.90
56725;DHT22;42608;52.776;6.968;2023-04-22T01:04:38;12.10;99.90
56725;DHT22;42608;52.776;6.968;2023-04-22T01:07:04;12.00;99.90
56725;DHT22;42608;52.776;6.968;2023-04-22T01:09:29;11.90;99.90
56725;DHT22;42608;52.776;6.968;2023-04-22T01:11:55;11.90;99.90
56725;DHT22;42608;52.776;6.968;2023-04-22T01:14:21;11.90;99.90
56725;DHT22;42608;52.776;6.968;2023-04-22T01:16:47;11.90;99.90
56725;DHT22;42608;52.776;6.968;2023-04-22T01:19:14;11.80;99.90
56725;DHT22;42608;52.776;6.968;2023-04-22T01:21:40;11.80;99.90
56725;DHT22;42608;52.776;6.968;2023-04-22T01:24:07;11.80;99.90
56725;DHT22;42608;52.776;6.968;2023-04-22T01:26:33;11.80;99.90
56725;DHT22;42608;52.776;6.968;2023-04-22T01:29:00;11.80;99.90
56725;DHT22;42608;52.776;6.968;2023-04-22T01:31:26;11.80;99.90
56725;DHT22;42608;52.776;6.968;2023-04-22T01:33:51;11.80;99.90
56725;DHT22;42608;52.776;6.968;2023-04-22T01:36:17;11.70;99.90
56725;DHT22;42608;52.776;6.968;2023-04-22T01:38:43;11.80;99.90
56725;DHT22;42608;52.776;6.968;2023-04-22T01:41:08;11.80;99.90
56725;DHT22;42608;52.776;6.968;2023-04-22T01:43:34;11.80;99.90
56725;DHT22;42608;52.776;6.968;2023-04-22T01:46:00;11.70;99.90
56725;DHT22;42608;52.776;6.968;2023-04-22T01:48:26;11.70;99.90
56725;DHT22;42608;52.776;6.968;2023-04-22T01:50:52;11.70;99.90
56725;DHT22;42608;52.776;6.968;2023-04-22T01:53:17;11.70;99.90
56725;DHT22;42608;52.776;6.968;2023-04-22T01:55:43;11.70;99.90
56725;DHT22;42608;52.776;6.968;2023-04-22T01:58:09;11.60;99.90
56725;DHT22;42608;52.776;6.968;2023-04-22T02:00:35;11.50;99.90
56725;DHT22;42608;52.776;6.968;2023-04-22T02:03:00;11.50;99.90
56725;DHT22;42608;52.776;6.968;2023-04-22T02:05:26;11.40;99.90
56725;DHT22;42608;52.776;6.968;2023-04-22T02:07:52;11.50;99.90
56725;DHT22;42608;52.776;6.968;2023-04-22T02:10:18;11.50;99.90
56725;DHT22;42608;52.776;6.968;2023-04-22T02:12:43;11.50;99.90
56725;DHT22;42608;52.776;6.968;2023-04-22T02:15:09;11.50;99.90
56725;DHT22;42608;52.776;6.968;2023-04-22T02:17:35;11.50;99.90
56725;DHT22;42608;52.776;6.968;2023-04-22T02:20:01;11.50;99.90
56725;DHT22;42608;52.776;6.968;2023-04-22T02:22:27;11.50;99.90
56725;DHT22;42608;52.776;6.968;2023-04-22T02:24:54;11.50;99.90
56725;DHT22;42608;52.776;6.968;2023-04-22T02:27:20;11.50;99.90
56725;DHT22;42608;52.776;6.968;2023-04-22T02:29:46;11.50;99.90
56725;DHT22;42608;52.776;6.968;2023-04-22T02:32:11;11.40;99.90
56725;DHT22;42608;52.776;6.968;2023-04-22T02:34:37;11.40;99.90
56725;DHT22;42608;52.776;6.968;2023-04-22T02:37:02;11.30;99.90
56725;DHT22;42608;52.776;6.968;2023-04-22T02:39:28;11.30;99.90
56725;DHT22;42608;52.776;6.968;2023-04-22T02:41:54;11.30;99.90
56725;DHT22;42608;52.776;6.968;2023-04-22T02:44:19;11.30;99.90
56725;DHT22;42608;52.776;6.968;2023-04-22T02:46:45;11.20;99.90
56725;DHT22;42608;52.776;6.968;2023-04-22T02:49:10;11.20;99.90
56725;DHT22;42608;52.776;6.968;2023-04-22T02:51:39;11.00;99.90
56725;DHT22;42608;52.776;6.968;2023-04-22T02:54:04;11.00;99.90
56725;DHT22;42608;52.776;6.968;2023-04-22T02:56:30;10.90;99.90
56725;DHT22;42608;52.776;6.968;2023-04-22T02:58:56;10.90;99.90
56725;DHT22;42608;52.776;6.968;2023-04-22T03:01:21;10.90;99.90
56725;DHT22;42608;52.776;6.968;2023-04-22T03:03:47;10.90;99.90
56725;DHT22;42608;52.776;6.968;2023-04-22T03:06:12;10.80;99.90
56725;DHT22;42608;52.776;6.968;2023-04-22T03:08:38;10.80;99.90
56725;DHT22;42608;52.776;6.968;2023-04-22T03:11:03;10.80;99.90
56725;DHT22;42608;52.776;6.968;2023-04-22T03:13:29;10.80;99.90
56725;DHT22;42608;52.776;6.968;2023-04-22T03:15:55;10.80;99.90
56725;DHT22;42608;52.776;6.968;2023-04-22T03:18:20;10.70;99.90
56725;DHT22;42608;52.776;6.968;2023-04-22T03:20:46;10.70;99.90
56725;DHT22;42608;52.776;6.968;2023-04-22T03:23:11;10.70;99.90
56725;DHT22;42608;52.776;6.968;2023-04-22T03:25:37;10.70;99.90
56725;DHT22;42608;52.776;6.968;2023-04-22T03:28:03;10.60;99.90
56725;DHT22;42608;52.776;6.968;2023-04-22T03:30:28;10.50;99.90
56725;DHT22;42608;52.776;6.968;2023-04-22T03:32:54;10.50;99.90
56725;DHT22;42608;52.776;6.968;2023-04-22T03:35:20;10.40;99.90
56725;DHT22;42608;52.776;6.968;2023-04-22T03:37:46;10.40;99.90
56725;DHT22;42608;52.776;6.968;2023-04-22T03:40:11;10.40;99.90
56725;DHT22;42608;52.776;6.968;2023-04-22T03:42:37;10.30;99.90
56725;DHT22;42608;52.776;6.968;2023-04-22T03:45:02;10.30;99.90
56725;DHT22;42608;52.776;6.968;2023-04-22T03:47:28;10.20;99.90
56725;DHT22;42608;52.776;6.968;2023-04-22T03:49:54;10.20;99.90
56725;DHT22;42608;52.776;6.968;2023-04-22T03:52:19;10.20;99.90
56725;DHT22;42608;52.776;6.968;2023-04-22T03:54:45;10.20;99.90
56725;DHT22;42608;52.776;6.968;2023-04-22T03:57:10;10.20;99.90
56725;DHT22;42608;52.776;6.968;2023-04-22T03:59:36;10.20;99.90
56725;DHT22;42608;52.776;6.968;2023-04-22T04:02:01;10.30;99.90
56725;DHT22;42608;52.776;6.968;2023-04-22T04:04:27;10.30;99.90
56725;DHT22;42608;52.776;6.968;2023-04-22T04:06:57;10.30;99.90
56725;DHT22;42608;52.776;6.968;2023-04-22T04:09:22;10.30;99.90
56725;DHT22;42608;52.776;6.968;2023-04-22T04:11:48;10.40;99.90
56725;DHT22;42608;52.776;6.968;2023-04-22T04:14:13;10.40;99.90
56725;DHT22;42608;52.776;6.968;2023-04-22T04:16:39;10.40;99.90
56725;DHT22;42608;52.776;6.968;2023-04-22T04:19:05;10.30;99.90
56725;DHT22;42608;52.776;6.968;2023-04-22T04:21:31;10.20;99.90
56725;DHT22;42608;52.776;6.968;2023-04-22T04:23:57;10.20;99.90
56725;DHT22;42608;52.776;6.968;2023-04-22T04:26:23;10.20;99.90
56725;DHT22;42608;52.776;6.968;2023-04-22T04:28:49;10.20;99.90
56725;DHT22;42608;52.776;6.968;2023-04-22T04:31:15;10.20;99.90
56725;DHT22;42608;52.776;6.968;2023-04-22T04:33:40;10.20;99.90
56725;DHT22;42608;52.776;6.968;2023-04-22T04:36:06;10.20;99.90
56725;DHT22;42608;52.776;6.968;2023-04-22T04:38:33;10.20;99.90
56725;DHT22;42608;52.776;6.968;2023-04-22T04:40:58;10.20;99.90
56725;DHT22;42608;52.776;6.968;2023-04-22T04:43:24;10.30;99.90
56725;DHT22;42608;52.776;6.968;2023-04-22T04:45:50;10.30;99.90
56725;DHT22;42608;52.776;6.968;2023-04-22T04:48:17;10.30;99.90
56725;DHT22;42608;52.776;6.968;2023-04-22T04:50:44;10.30;99.90
56725;DHT22;42608;52.776;6.968;2023-04-22T04:53:10;10.30;99.90
56725;DHT22;42608;52.776;6.968;2023-04-22T04:55:36;10.30;99.90
56725;DHT22;42608;52.776;6.968;2023-04-22T04:58:01;10.30;99.90
56725;DHT22;42608;52.776;6.968;2023-04-22T05:00:27;10.30;99.90
56725;DHT22;42608;52.776;6.968;2023-04-22T05:02:53;10.30;99.90
56725;DHT22;42608;52.776;6.968;2023-04-22T05:05:18;10.40;99.90
56725;DHT22;42608;52.776;6.968;2023-04-22T05:07:44;10.40;99.90
56725;DHT22;42608;52.776;6.968;2023-04-22T05:10:09;10.40;99.90
56725;DHT22;42608;52.776;6.968;2023-04-22T05:12:35;10.40;99.90
56725;DHT22;42608;52.776;6.968;2023-04-22T05:15:01;10.40;99.90
56725;DHT22;42608;52.776;6.968;2023-04-22T05:17:27;10.40;99.90
56725;DHT22;42608;52.776;6.968;2023-04-22T05:19:52;10.40;99.90
56725;DHT22;42608;52.776;6.968;2023-04-22T05:22:18;10.50;99.90
56725;DHT22;42608;52.776;6.968;2023-04-22T05:24:43;10.50;99.90
56725;DHT22;42608;52.776;6.968;2023-04-22T05:27:12;10.50;99.90
56725;DHT22;42608;52.776;6.968;2023-04-22T05:29:38;10.50;99.90
56725;DHT22;42608;52.776;6.968;2023-04-22T05:32:03;10.50;99.90
56725;DHT22;42608;52.776;6.968;2023-04-22T05:34:29;10.50;99.90
56725;DHT22;42608;52.776;6.968;2023-04-22T05:36:54;10.50;99.90
56725;DHT22;42608;52.776;6.968;2023-04-22T05:39:20;10.60;99.90
56725;DHT22;42608;52.776;6.968;2023-04-22T05:41:46;10.60;99.90
56725;DHT22;42608;52.776;6.968;2023-04-22T05:44:11;10.60;99.90
56725;DHT22;42608;52.776;6.968;2023-04-22T05:46:37;10.50;99.90
56725;DHT22;42608;52.776;6.968;2023-04-22T05:49:03;10.60;99.90
56725;DHT22;42608;52.776;6.968;2023-04-22T05:51:28;10.60;99.90
56725;DHT22;42608;52.776;6.968;2023-04-22T05:53:54;10.60;99.90
56725;DHT22;42608;52.776;6.968;2023-04-22T05:56:19;10.70;99.90
56725;DHT22;42608;52.776;6.968;2023-04-22T05:58:45;10.70;99.90
56725;DHT22;42608;52.776;6.968;2023-04-22T06:01:11;10.70;99.90
56725;DHT22;42608;52.776;6.968;2023-04-22T06:03:37;10.70;99.90
56725;DHT22;42608;52.776;6.968;2023-04-22T06:06:02;10.80;99.90
56725;DHT22;42608;52.776;6.968;2023-04-22T06:08:28;10.80;99.90
56725;DHT22;42608;52.776;6.968;2023-04-22T06:10:54;10.80;99.90
56725;DHT22;42608;52.776;6.968;2023-04-22T06:13:20;10.90;99.90
56725;DHT22;42608;52.776;6.968;2023-04-22T06:15:45;10.90;99.90
56725;DHT22;42608;52.776;6.968;2023-04-22T06:18:11;10.90;99.90
56725;DHT22;42608;52.776;6.968;2023-04-22T06:20:36;10.90;99.90
56725;DHT22;42608;52.776;6.968;2023-04-22T06:23:02;11.00;99.90
56725;DHT22;42608;52.776;6.968;2023-04-22T06:25:29;11.00;99.90
56725;DHT22;42608;52.776;6.968;2023-04-22T06:27:56;11.00;99.90
56725;DHT22;42608;52.776;6.968;2023-04-22T06:30:21;11.10;99.90
56725;DHT22;42608;52.776;6.968;2023-04-22T06:32:47;11.10;99.90
56725;DHT22;42608;52.776;6.968;2023-04-22T06:35:13;11.10;99.90
56725;DHT22;42608;52.776;6.968;2023-04-22T06:37:38;11.20;99.90
56725;DHT22;42608;52.776;6.968;2023-04-22T06:40:04;11.20;99.90
56725;DHT22;42608;52.776;6.968;2023-04-22T06:42:30;11.20;99.90
56725;DHT22;42608;52.776;6.968;2023-04-22T06:44:55;11.30;99.90
56725;DHT22;42608;52.776;6.968;2023-04-22T06:47:21;11.30;99.90
56725;DHT22;42608;52.776;6.968;2023-04-22T06:49:46;11.30;99.90
56725;DHT22;42608;52.776;6.968;2023-04-22T06:52:12;11.40;99.90
56725;DHT22;42608;52.776;6.968;2023-04-22T06:54:37;11.40;99.90
56725;DHT22;42608;52.776;6.968;2023-04-22T06:57:03;11.50;99.90
56725;DHT22;42608;52.776;6.968;2023-04-22T06:59:29;11.50;99.90
56725;DHT22;42608;52.776;6.968;2023-04-22T07:01:54;11.50;99.90
56725;DHT22;42608;52.776;6.968;2023-04-22T07:04:20;11.60;99.90
56725;DHT22;42608;52.776;6.968;2023-04-22T07:06:46;11.60;99.90
56725;DHT22;42608;52.776;6.968;2023-04-22T07:09:11;11.70;99.90
56725;DHT22;42608;52.776;6.968;2023-04-22T07:11:37;11.70;99.90
56725;DHT22;42608;52.776;6.968;2023-04-22T07:14:02;11.80;99.90
56725;DHT22;42608;52.776;6.968;2023-04-22T07:16:28;11.80;99.90
56725;DHT22;42608;52.776;6.968;2023-04-22T07:18:53;11.90;99.90
56725;DHT22;42608;52.776;6.968;2023-04-22T07:21:19;11.90;99.90
56725;DHT22;42608;52.776;6.968;2023-04-22T07:23:45;12.00;99.90
56725;DHT22;42608;52.776;6.968;2023-04-22T07:26:11;12.00;99.90
56725;DHT22;42608;52.776;6.968;2023-04-22T07:28:36;12.00;99.90
56725;DHT22;42608;52.776;6.968;2023-04-22T07:31:02;12.10;99.90
56725;DHT22;42608;52.776;6.968;2023-04-22T07:33:27;12.20;99.90
56725;DHT22;42608;52.776;6.968;2023-04-22T07:35:53;12.20;99.90
56725;DHT22;42608;52.776;6.968;2023-04-22T07:38:19;12.20;99.90
56725;DHT22;42608;52.776;6.968;2023-04-22T07:40:44;12.30;99.90
56725;DHT22;42608;52.776;6.968;2023-04-22T07:43:10;12.30;99.90
56725;DHT22;42608;52.776;6.968;2023-04-22T07:45:35;12.40;99.90
56725;DHT22;42608;52.776;6.968;2023-04-22T07:48:01;12.50;99.90
56725;DHT22;42608;52.776;6.968;2023-04-22T07:50:27;12.50;99.90
56725;DHT22;42608;52.776;6.968;2023-04-22T07:52:52;12.50;99.90
56725;DHT22;42608;52.776;6.968;2023-04-22T07:55:18;12.60;99.90
56725;DHT22;42608;52.776;6.968;2023-04-22T07:57:43;12.70;99.90
56725;DHT22;42608;52.776;6.968;2023-04-22T08:00:09;12.80;99.90
56725;DHT22;42608;52.776;6.968;2023-04-22T08:02:35;12.80;99.90
56725;DHT22;42608;52.776;6.968;2023-04-22T08:05:01;12.90;99.90
56725;DHT22;42608;52.776;6.968;2023-04-22T08:07:27;13.00;99.90
56725;DHT22;42608;52.776;6.968;2023-04-22T08:09:52;13.00;99.90
56725;DHT22;42608;52.776;6.968;2023-04-22T08:12:20;13.10;99.90
56725;DHT22;42608;52.776;6.968;2023-04-22T08:14:45;13.20;99.90
56725;DHT22;42608;52.776;6.968;2023-04-22T08:17:11;13.30;99.90
56725;DHT22;42608;52.776;6.968;2023-04-22T08:19:36;13.40;99.90
56725;DHT22;42608;52.776;6.968;2023-04-22T08:22:02;13.40;99.90
56725;DHT22;42608;52.776;6.968;2023-04-22T08:24:28;13.50;99.90
56725;DHT22;42608;52.776;6.968;2023-04-22T08:26:53;13.60;99.90
56725;DHT22;42608;52.776;6.968;2023-04-22T08:29:19;13.70;99.90
56725;DHT22;42608;52.776;6.968;2023-04-22T08:31:44;13.80;99.90
56725;DHT22;42608;52.776;6.968;2023-04-22T08:34:10;13.80;99.90
56725;DHT22;42608;52.776;6.968;2023-04-22T08:36:36;13.90;99.90
56725;DHT22;42608;52.776;6.968;2023-04-22T08:39:01;14.00;99.90
56725;DHT22;42608;52.776;6.968;2023-04-22T08:41:27;14.00;99.90
56725;DHT22;42608;52.776;6.968;2023-04-22T08:43:52;14.10;99.90
56725;DHT22;42608;52.776;6.968;2023-04-22T08:46:18;14.10;99.90
56725;DHT22;42608;52.776;6.968;2023-04-22T08:48:50;14.30;99.90
56725;DHT22;42608;52.776;6.968;2023-04-22T08:51:17;14.30;99.90
56725;DHT22;42608;52.776;6.968;2023-04-22T08:53:43;14.50;99.90
56725;DHT22;42608;52.776;6.968;2023-04-22T08:56:11;14.60;99.90
56725;DHT22;42608;52.776;6.968;2023-04-22T08:58:39;14.60;99.90
56725;DHT22;42608;52.776;6.968;2023-04-22T09:01:06;14.70;99.90
56725;DHT22;42608;52.776;6.968;2023-04-22T09:03:36;14.80;99.90
56725;DHT22;42608;52.776;6.968;2023-04-22T09:06:03;14.80;99.90
56725;DHT22;42608;52.776;6.968;2023-04-22T09:08:30;14.90;99.90
56725;DHT22;42608;52.776;6.968;2023-04-22T09:10:57;14.90;99.90
56725;DHT22;42608;52.776;6.968;2023-04-22T09:13:25;15.00;99.90
56725;DHT22;42608;52.776;6.968;2023-04-22T09:15:51;15.10;99.90
56725;DHT22;42608;52.776;6.968;2023-04-22T09:18:18;15.20;99.90
56725;DHT22;42608;52.776;6.968;2023-04-22T09:20:46;15.30;99.90
56725;DHT22;42608;52.776;6.968;2023-04-22T09:23:12;15.30;99.90
56725;DHT22;42608;52.776;6.968;2023-04-22T09:25:38;15.40;99.90
56725;DHT22;42608;52.776;6.968;2023-04-22T09:28:05;15.40;99.90
56725;DHT22;42608;52.776;6.968;2023-04-22T09:30:35;15.40;99.90
56725;DHT22;42608;52.776;6.968;2023-04-22T09:33:05;15.50;99.90
56725;DHT22;42608;52.776;6.968;2023-04-22T09:35:35;15.60;99.90
56725;DHT22;42608;52.776;6.968;2023-04-22T09:38:03;15.80;99.90
56725;DHT22;42608;52.776;6.968;2023-04-22T09:40:30;15.80;99.90
56725;DHT22;42608;52.776;6.968;2023-04-22T09:42:57;15.90;99.90
56725;DHT22;42608;52.776;6.968;2023-04-22T09:45:26;16.00;99.90
56725;DHT22;42608;52.776;6.968;2023-04-22T09:47:53;16.10;99.90
56725;DHT22;42608;52.776;6.968;2023-04-22T09:50:19;16.20;99.90
56725;DHT22;42608;52.776;6.968;2023-04-22T09:52:53;16.20;99.90
56725;DHT22;42608;52.776;6.968;2023-04-22T09:55:24;16.30;99.90
56725;DHT22;42608;52.776;6.968;2023-04-22T09:57:53;16.40;99.90
56725;DHT22;42608;52.776;6.968;2023-04-22T10:00:19;16.50;99.90
56725;DHT22;42608;52.776;6.968;2023-04-22T10:02:45;16.50;99.90
56725;DHT22;42608;52.776;6.968;2023-04-22T10:05:11;16.50;99.90
56725;DHT22;42608;52.776;6.968;2023-04-22T10:07:38;16.60;99.90
56725;DHT22;42608;52.776;6.968;2023-04-22T10:10:06;16.60;99.90
56725;DHT22;42608;52.776;6.968;2023-04-22T10:12:36;16.60;99.90
56725;DHT22;42608;52.776;6.968;2023-04-22T10:15:03;16.70;99.90
56725;DHT22;42608;52.776;6.968;2023-04-22T10:17:31;16.70;99.90
56725;DHT22;42608;52.776;6.968;2023-04-22T10:19:59;16.80;99.90
56725;DHT22;42608;52.776;6.968;2023-04-22T10:22:32;16.90;99.90
56725;DHT22;42608;52.776;6.968;2023-04-22T10:24:59;16.90;99.90
56725;DHT22;42608;52.776;6.968;2023-04-22T10:27:24;17.10;99.90
56725;DHT22;42608;52.776;6.968;2023-04-22T10:29:50;17.10;99.90
56725;DHT22;42608;52.776;6.968;2023-04-22T10:34:48;17.30;99.90
56725;DHT22;42608;52.776;6.968;2023-04-22T10:37:18;17.40;99.90
56725;DHT22;42608;52.776;6.968;2023-04-22T10:40:14;17.40;99.90
56725;DHT22;42608;52.776;6.968;2023-04-22T10:42:42;17.50;99.90
56725;DHT22;42608;52.776;6.968;2023-04-22T10:45:14;17.50;99.90
56725;DHT22;42608;52.776;6.968;2023-04-22T10:47:41;17.60;99.90
56725;DHT22;42608;52.776;6.968;2023-04-22T10:50:20;17.70;99.90
56725;DHT22;42608;52.776;6.968;2023-04-22T10:52:51;17.80;99.90
56725;DHT22;42608;52.776;6.968;2023-04-22T10:55:17;17.80;99.90
56725;DHT22;42608;52.776;6.968;2023-04-22T10:57:45;17.90;99.90
56725;DHT22;42608;52.776;6.968;2023-04-22T11:00:40;18.00;99.90
56725;DHT22;42608;52.776;6.968;2023-04-22T11:03:11;18.10;99.90
56725;DHT22;42608;52.776;6.968;2023-04-22T11:05:37;18.10;99.90
56725;DHT22;42608;52.776;6.968;2023-04-22T11:08:11;18.20;99.90
56725;DHT22;42608;52.776;6.968;2023-04-22T11:10:46;18.30;99.90
56725;DHT22;42608;52.776;6.968;2023-04-22T11:13:17;18.30;99.90
56725;DHT22;42608;52.776;6.968;2023-04-22T11:15:48;18.40;99.90
56725;DHT22;42608;52.776;6.968;2023-04-22T11:18:20;18.50;99.90
56725;DHT22;42608;52.776;6.968;2023-04-22T11:20:47;18.50;99.90
56725;DHT22;42608;52.776;6.968;2023-04-22T11:23:25;18.50;99.90
56725;DHT22;42608;52.776;6.968;2023-04-22T11:26:00;18.60;99.90
56725;DHT22;42608;52.776;6.968;2023-04-22T11:28:26;18.60;99.90
56725;DHT22;42608;52.776;6.968;2023-04-22T11:30:52;18.60;99.90
56725;DHT22;42608;52.776;6.968;2023-04-22T11:33:25;18.70;99.90
56725;DHT22;42608;52.776;6.968;2023-04-22T11:35:51;18.80;99.90
56725;DHT22;42608;52.776;6.968;2023-04-22T11:38:16;18.80;99.90
56725;DHT22;42608;52.776;6.968;2023-04-22T11:40:43;18.80;99.90
56725;DHT22;42608;52.776;6.968;2023-04-22T11:43:10;18.90;99.90
56725;DHT22;42608;52.776;6.968;2023-04-22T11:45:37;18.90;99.90
56725;DHT22;42608;52.776;6.968;2023-04-22T11:48:05;18.90;99.90
56725;DHT22;42608;52.776;6.968;2023-04-22T11:50:33;18.90;99.90
56725;DHT22;42608;52.776;6.968;2023-04-22T11:53:04;18.90;99.90
56725;DHT22;42608;52.776;6.968;2023-04-22T11:55:39;18.90;99.90
56725;DHT22;42608;52.776;6.968;2023-04-22T11:58:12;18.90;99.90
56725;DHT22;42608;52.776;6.968;2023-04-22T12:00:43;18.90;99.90
56725;DHT22;42608;52.776;6.968;2023-04-22T12:05:44;19.10;99.90
56725;DHT22;42608;52.776;6.968;2023-04-22T12:08:16;19.10;99.90
56725;DHT22;42608;52.776;6.968;2023-04-22T12:13:19;19.20;99.90
56725;DHT22;42608;52.776;6.968;2023-04-22T12:15:46;19.40;99.90
56725;DHT22;42608;52.776;6.968;2023-04-22T12:18:11;19.50;99.90
56725;DHT22;42608;52.776;6.968;2023-04-22T12:20:41;19.50;99.90
56725;DHT22;42608;52.776;6.968;2023-04-22T12:23:14;19.50;99.90
56725;DHT22;42608;52.776;6.968;2023-04-22T12:25:41;19.60;99.90
56725;DHT22;42608;52.776;6.968;2023-04-22T12:28:06;19.70;99.90
56725;DHT22;42608;52.776;6.968;2023-04-22T12:30:33;19.80;99.90
56725;DHT22;42608;52.776;6.968;2023-04-22T12:32:58;19.90;99.90
56725;DHT22;42608;52.776;6.968;2023-04-22T12:35:24;20.00;99.90
56725;DHT22;42608;52.776;6.968;2023-04-22T12:37:51;20.10;99.90
56725;DHT22;42608;52.776;6.968;2023-04-22T12:40:17;20.10;99.90
56725;DHT22;42608;52.776;6.968;2023-04-22T12:42:43;20.10;99.90
56725;DHT22;42608;52.776;6.968;2023-04-22T12:45:09;20.30;99.90
56725;DHT22;42608;52.776;6.968;2023-04-22T12:47:35;20.30;99.90
56725;DHT22;42608;52.776;6.968;2023-04-22T12:50:00;20.40;99.90
56725;DHT22;42608;52.776;6.968;2023-04-22T12:52:31;20.40;99.90
56725;DHT22;42608;52.776;6.968;2023-04-22T12:54:57;20.30;99.90
56725;DHT22;42608;52.776;6.968;2023-04-22T12:57:23;20.40;99.90
56725;DHT22;42608;52.776;6.968;2023-04-22T12:59:48;20.40;99.90
56725;DHT22;42608;52.776;6.968;2023-04-22T13:02:14;20.40;99.90
56725;DHT22;42608;52.776;6.968;2023-04-22T13:04:40;20.40;99.90
56725;DHT22;42608;52.776;6.968;2023-04-22T13:07:05;20.40;99.90
56725;DHT22;42608;52.776;6.968;2023-04-22T13:09:31;20.50;99.90
56725;DHT22;42608;52.776;6.968;2023-04-22T13:11:57;20.60;99.90
56725;DHT22;42608;52.776;6.968;2023-04-22T13:14:22;20.70;99.90
56725;DHT22;42608;52.776;6.968;2023-04-22T13:16:48;20.70;99.90
56725;DHT22;42608;52.776;6.968;2023-04-22T13:19:14;20.80;99.90
56725;DHT22;42608;52.776;6.968;2023-04-22T13:21:40;20.90;99.90
56725;DHT22;42608;52.776;6.968;2023-04-22T13:24:06;21.00;99.90
56725;DHT22;42608;52.776;6.968;2023-04-22T13:26:31;21.20;99.90
56725;DHT22;42608;52.776;6.968;2023-04-22T13:28:57;21.30;99.90
56725;DHT22;42608;52.776;6.968;2023-04-22T13:31:23;21.40;99.90
56725;DHT22;42608;52.776;6.968;2023-04-22T13:33:48;21.30;99.90
56725;DHT22;42608;52.776;6.968;2023-04-22T13:36:14;21.30;99.90
56725;DHT22;42608;52.776;6.968;2023-04-22T13:38:40;21.20;99.90
56725;DHT22;42608;52.776;6.968;2023-04-22T13:41:05;21.20;99.90
56725;DHT22;42608;52.776;6.968;2023-04-22T13:43:31;21.10;99.90
56725;DHT22;42608;52.776;6.968;2023-04-22T13:45:57;21.10;99.90
56725;DHT22;42608;52.776;6.968;2023-04-22T13:48:22;21.10;99.90
56725;DHT22;42608;52.776;6.968;2023-04-22T13:50:48;21.00;99.90
56725;DHT22;42608;52.776;6.968;2023-04-22T13:53:14;21.00;99.90
56725;DHT22;42608;52.776;6.968;2023-04-22T13:55:39;20.90;99.90
56725;DHT22;42608;52.776;6.968;2023-04-22T13:58:07;20.90;99.90
56725;DHT22;42608;52.776;6.968;2023-04-22T14:00:33;20.80;99.90
56725;DHT22;42608;52.776;6.968;2023-04-22T14:02:59;20.80;99.90
56725;DHT22;42608;52.776;6.968;2023-04-22T14:05:25;20.60;99.90
56725;DHT22;42608;52.776;6.968;2023-04-22T14:07:52;20.60;99.90
56725;DHT22;42608;52.776;6.968;2023-04-22T14:10:18;20.50;99.90
56725;DHT22;42608;52.776;6.968;2023-04-22T14:12:47;20.50;99.90
56725;DHT22;42608;52.776;6.968;2023-04-22T14:15:13;20.40;99.90
56725;DHT22;42608;52.776;6.968;2023-04-22T14:17:39;20.30;99.90
56725;DHT22;42608;52.776;6.968;2023-04-22T14:20:06;20.30;99.90
56725;DHT22;42608;52.776;6.968;2023-04-22T14:22:32;20.30;99.90
56725;DHT22;42608;52.776;6.968;2023-04-22T14:24:58;20.20;99.90
56725;DHT22;42608;52.776;6.968;2023-04-22T14:27:25;20.30;99.90
56725;DHT22;42608;52.776;6.968;2023-04-22T14:29:50;20.30;99.90
56725;DHT22;42608;52.776;6.968;2023-04-22T14:32:19;20.30;99.90
56725;DHT22;42608;52.776;6.968;2023-04-22T14:34:45;20.30;99.90
56725;DHT22;42608;52.776;6.968;2023-04-22T14:37:11;20.30;99.90
56725;DHT22;42608;52.776;6.968;2023-04-22T14:39:37;20.20;99.90
56725;DHT22;42608;52.776;6.968;2023-04-22T14:42:03;20.20;99.90
56725;DHT22;42608;52.776;6.968;2023-04-22T14:44:29;20.20;99.90
56725;DHT22;42608;52.776;6.968;2023-04-22T14:46:55;20.10;99.90
56725;DHT22;42608;52.776;6.968;2023-04-22T14:49:20;20.10;99.90
56725;DHT22;42608;52.776;6.968;2023-04-22T14:51:46;20.10;99.90
56725;DHT22;42608;52.776;6.968;2023-04-22T14:54:12;20.00;99.90
56725;DHT22;42608;52.776;6.968;2023-04-22T14:56:38;20.00;99.90
56725;DHT22;42608;52.776;6.968;2023-04-22T14:59:04;20.00;99.90
56725;DHT22;42608;52.776;6.968;2023-04-22T15:01:30;20.00;99.90
56725;DHT22;42608;52.776;6.968;2023-04-22T15:03:56;19.90;99.90
56725;DHT22;42608;52.776;6.968;2023-04-22T15:06:22;19.90;99.90
56725;DHT22;42608;52.776;6.968;2023-04-22T15:08:48;19.80;99.90
56725;DHT22;42608;52.776;6.968;2023-04-22T15:11:16;19.80;99.90
56725;DHT22;42608;52.776;6.968;2023-04-22T15:13:42;19.80;99.90
56725;DHT22;42608;52.776;6.968;2023-04-22T15:16:07;19.70;99.90
56725;DHT22;42608;52.776;6.968;2023-04-22T15:18:33;19.70;99.90
56725;DHT22;42608;52.776;6.968;2023-04-22T15:20:59;19.60;99.90
56725;DHT22;42608;52.776;6.968;2023-04-22T15:23:27;19.60;99.90
56725;DHT22;42608;52.776;6.968;2023-04-22T15:25:53;19.40;99.90
56725;DHT22;42608;52.776;6.968;2023-04-22T15:28:19;19.20;99.90
56725;DHT22;42608;52.776;6.968;2023-04-22T15:30:45;19.00;99.90
56725;DHT22;42608;52.776;6.968;2023-04-22T15:33:10;18.80;99.90